TimeMDT,TemperatureF,Dew PointF,Humidity,Sea Level PressureIn,VisibilityMPH,Wind Direction,Wind SpeedMPH,Gust SpeedMPH,PrecipitationIn,Events,Conditions,WindDirDegrees,DateUTC
12:15 AM,32.0,27.5,83,30.17,10.0,SW,6.9,-,N/A,,Clear,220,2013-03-28 06:15:00
12:35 AM,31.5,27.3,85,30.16,10.0,SW,5.8,-,N/A,,Clear,230,2013-03-28 06:35:00
12:55 AM,31.3,27.0,84,30.17,10.0,SW,5.8,-,N/A,,Clear,220,2013-03-28 06:55:00
1:35 AM,31.1,26.8,84,30.16,10.0,SW,5.8,-,N/A,,Clear,220,2013-03-28 07:35:00
1:55 AM,30.6,26.4,85,30.16,10.0,WSW,4.6,-,N/A,,Clear,240,2013-03-28 07:55:00
2:15 AM,31.1,26.6,83,30.16,10.0,WSW,4.6,-,N/A,,Clear,240,2013-03-28 08:15:00
2:35 AM,31.8,26.8,82,30.14,10.0,SW,4.6,-,N/A,,Clear,230,2013-03-28 08:35:00
2:55 AM,32.0,26.6,80,30.14,10.0,SSW,4.6,-,N/A,,Clear,200,2013-03-28 08:55:00
3:15 AM,30.9,25.9,82,30.14,10.0,SW,5.8,-,N/A,,Clear,220,2013-03-28 09:15:00
3:35 AM,30.9,25.5,80,30.13,10.0,WSW,3.5,-,N/A,,Clear,240,2013-03-28 09:35:00
3:55 AM,31.5,25.0,77,30.12,10.0,SW,3.5,-,N/A,,Clear,230,2013-03-28 09:55:00
4:15 AM,29.7,24.3,80,30.12,10.0,Calm,Calm,-,N/A,,Clear,0,2013-03-28 10:15:00
4:35 AM,29.1,23.4,79,30.11,10.0,SW,4.6,-,N/A,,Clear,230,2013-03-28 10:35:00
4:55 AM,29.3,24.1,81,30.11,10.0,Calm,Calm,-,N/A,,Clear,0,2013-03-28 10:55:00
5:15 AM,29.3,23.7,80,30.11,10.0,NW,3.5,-,N/A,,Clear,310,2013-03-28 11:15:00
5:35 AM,27.7,23.7,85,30.11,10.0,NW,4.6,-,N/A,,Clear,310,2013-03-28 11:35:00
5:55 AM,27.5,23.5,85,30.11,10.0,NNW,5.8,-,N/A,,Clear,330,2013-03-28 11:55:00
6:15 AM,28.0,23.9,84,30.11,10.0,WNW,4.6,-,N/A,,Clear,290,2013-03-28 12:15:00
6:35 AM,30.2,25.3,82,30.11,10.0,NNW,4.6,-,N/A,,Clear,330,2013-03-28 12:35:00
6:55 AM,29.5,24.6,82,30.11,10.0,NW,4.6,-,N/A,,Clear,310,2013-03-28 12:55:00
7:15 AM,29.7,25.2,83,30.12,10.0,Calm,Calm,-,N/A,,Clear,0,2013-03-28 13:15:00
7:35 AM,32.5,27.1,80,30.12,10.0,Calm,Calm,-,N/A,,Clear,0,2013-03-28 13:35:00
7:55 AM,36.0,28.9,76,30.12,10.0,NNW,3.5,-,N/A,,Clear,330,2013-03-28 13:55:00
8:15 AM,39.7,28.0,63,30.13,10.0,Calm,Calm,-,N/A,,Clear,0,2013-03-28 14:15:00
8:55 AM,42.8,28.0,56,30.13,10.0,Calm,Calm,-,N/A,,Clear,0,2013-03-28 14:55:00
9:15 AM,43.0,26.6,52,30.14,10.0,SW,4.6,-,N/A,,Clear,220,2013-03-28 15:15:00
9:35 AM,44.1,26.8,51,30.14,10.0,WSW,5.8,-,N/A,,Clear,240,2013-03-28 15:35:00
9:55 AM,47.8,27.7,46,30.14,10.0,WSW,3.5,-,N/A,,Clear,250,2013-03-28 15:55:00
10:15 AM,51.6,25.3,36,30.14,10.0,South,5.8,-,N/A,,Clear,190,2013-03-28 16:15:00
10:35 AM,53.4,24.3,32,30.15,10.0,South,9.2,-,N/A,,Clear,190,2013-03-28 16:35:00
10:55 AM,55.9,22.5,27,30.15,10.0,South,10.4,-,N/A,,Clear,190,2013-03-28 16:55:00
11:15 AM,55.8,16.9,22,30.15,10.0,South,9.2,-,N/A,,Clear,190,2013-03-28 17:15:00
11:35 AM,58.6,18.7,21,30.14,10.0,ESE,10.4,-,N/A,,Clear,110,2013-03-28 17:35:00
11:55 AM,57.9,18.1,21,30.14,10.0,SE,9.2,-,N/A,,Mostly Cloudy,140,2013-03-28 17:55:00
12:15 PM,59.4,18.5,20,30.13,10.0,SSW,6.9,-,N/A,,Mostly Cloudy,200,2013-03-28 18:15:00
12:35 PM,57.4,17.8,21,30.13,10.0,South,6.9,16.1,N/A,,Scattered Clouds,190,2013-03-28 18:35:00
12:55 PM,58.1,18.3,21,30.13,10.0,SSE,10.4,17.3,N/A,,Scattered Clouds,150,2013-03-28 18:55:00
1:15 PM,56.3,20.1,24,30.13,10.0,East,12.7,21.9,N/A,,Overcast,80,2013-03-28 19:15:00
1:35 PM,55.6,19.8,25,30.14,10.0,East,8.1,-,N/A,,Overcast,90,2013-03-28 19:35:00
1:55 PM,55.2,22.6,28,30.14,10.0,NNE,15.0,21.9,N/A,,Overcast,20,2013-03-28 19:55:00
2:15 PM,54.9,22.5,28,30.14,10.0,NNW,3.5,-,N/A,,Overcast,340,2013-03-28 20:15:00
2:35 PM,59.0,22.3,24,30.13,10.0,WSW,3.5,-,N/A,,Mostly Cloudy,250,2013-03-28 20:35:00
2:55 PM,60.8,21.9,22,30.12,10.0,Calm,Calm,-,N/A,,Scattered Clouds,0,2013-03-28 20:55:00
3:15 PM,59.5,21.4,23,30.12,10.0,SW,3.5,-,N/A,,Mostly Cloudy,230,2013-03-28 21:15:00
3:35 PM,61.0,21.7,22,30.12,10.0,North,4.6,-,N/A,,Overcast,350,2013-03-28 21:35:00
3:55 PM,59.5,21.4,23,30.12,10.0,NNE,4.6,-,N/A,,Overcast,20,2013-03-28 21:55:00
4:15 PM,57.9,22.5,25,30.12,10.0,NNE,10.4,-,N/A,,Mostly Cloudy,20,2013-03-28 22:15:00
4:35 PM,56.3,22.3,27,30.12,10.0,East,6.9,-,N/A,,Mostly Cloudy,80,2013-03-28 22:35:00
4:55 PM,55.8,23.0,28,30.12,10.0,East,5.8,-,N/A,,Overcast,100,2013-03-28 22:55:00
5:15 PM,55.0,22.8,29,30.14,10.0,Calm,Calm,-,N/A,,Overcast,0,2013-03-28 23:15:00
5:35 PM,54.1,23.9,31,30.14,10.0,Calm,Calm,-,N/A,,Overcast,0,2013-03-28 23:35:00
5:55 PM,54.1,23.5,31,30.14,10.0,ENE,4.6,-,N/A,,Overcast,70,2013-03-28 23:55:00
6:15 PM,53.1,23.4,32,30.14,10.0,Calm,Calm,-,N/A,,Overcast,0,2013-03-29 00:15:00
6:35 PM,51.8,24.8,35,30.15,10.0,SE,9.2,17.3,N/A,,Overcast,130,2013-03-29 00:35:00
6:55 PM,50.7,25.3,37,30.15,10.0,East,11.5,-,N/A,,Overcast,100,2013-03-29 00:55:00
7:15 PM,50.4,25.2,37,30.16,10.0,SSE,8.1,-,N/A,,Overcast,150,2013-03-29 01:15:00
7:35 PM,50.4,25.3,38,30.17,10.0,East,11.5,-,N/A,,Overcast,80,2013-03-29 01:35:00
7:55 PM,51.4,23.9,34,30.18,10.0,Calm,Calm,-,N/A,,Overcast,0,2013-03-29 01:55:00
8:15 PM,49.3,27.1,42,30.18,10.0,North,3.5,-,N/A,,Overcast,360,2013-03-29 02:15:00
8:35 PM,48.0,27.3,45,30.18,10.0,SW,3.5,-,N/A,,Overcast,230,2013-03-29 02:35:00
8:55 PM,47.5,26.6,44,30.18,10.0,Calm,Calm,-,N/A,,Scattered Clouds,0,2013-03-29 02:55:00
9:15 PM,45.0,26.8,49,30.19,10.0,Calm,Calm,-,N/A,,Clear,0,2013-03-29 03:15:00
9:35 PM,41.7,25.7,53,30.19,10.0,East,5.8,-,N/A,,Clear,100,2013-03-29 03:35:00
9:55 PM,42.4,26.6,54,30.20,10.0,Calm,Calm,-,N/A,,Clear,0,2013-03-29 03:55:00
10:15 PM,42.6,26.6,53,30.19,10.0,East,3.5,-,N/A,,Scattered Clouds,80,2013-03-29 04:15:00
10:35 PM,39.4,26.6,60,30.19,10.0,Calm,Calm,-,N/A,,Scattered Clouds,0,2013-03-29 04:35:00
10:55 PM,35.6,26.2,69,30.19,10.0,Calm,Calm,-,N/A,,Clear,0,2013-03-29 04:55:00
11:15 PM,37.8,26.6,64,30.19,10.0,South,5.8,-,N/A,,Clear,180,2013-03-29 05:15:00
11:35 PM,40.1,26.2,58,30.19,10.0,Calm,Calm,-,N/A,,Clear,0,2013-03-29 05:35:00
11:55 PM,39.4,26.2,59,30.19,10.0,Calm,Calm,-,N/A,,Clear,0,2013-03-29 05:55:00